sensor_id;sensor_type;location;lat;lon;timestamp;pressure;altitude;pressure_sealevel;temperature;humidity
12360;BME280;6244;51.460;7.090;2022-09-30T00:00:59;97209.31;;;3.59;73.21
12360;BME280;6244;51.460;7.090;2022-09-30T00:05:58;97208.78;;;3.54;73.15
12360;BME280;6244;51.460;7.090;2022-09-30T00:10:59;97208.00;;;3.52;73.06
12360;BME280;6244;51.460;7.090;2022-09-30T00:15:55;97221.31;;;3.46;73.09
12360;BME280;6244;51.460;7.090;2022-09-30T00:20:52;97221.81;;;3.37;73.28
12360;BME280;6244;51.460;7.090;2022-09-30T00:25:55;97224.16;;;3.26;73.31
12360;BME280;6244;51.460;7.090;2022-09-30T00:30:53;97225.69;;;3.14;73.92
12360;BME280;6244;51.460;7.090;2022-09-30T00:35:50;97230.63;;;3.03;74.84
12360;BME280;6244;51.460;7.090;2022-09-30T00:40:46;97217.44;;;2.92;74.40
12360;BME280;6244;51.460;7.090;2022-09-30T00:45:48;97219.22;;;2.92;74.49
12360;BME280;6244;51.460;7.090;2022-09-30T00:50:46;97217.94;;;2.99;74.58
12360;BME280;6244;51.460;7.090;2022-09-30T00:55:51;97214.28;;;3.03;74.73
12360;BME280;6244;51.460;7.090;2022-09-30T01:00:51;97221.88;;;3.06;74.43
12360;BME280;6244;51.460;7.090;2022-09-30T01:05:48;97219.38;;;3.04;73.93
12360;BME280;6244;51.460;7.090;2022-09-30T01:10:45;97224.97;;;2.97;75.01
12360;BME280;6244;51.460;7.090;2022-09-30T01:16:08;97221.53;;;2.81;76.03
12360;BME280;6244;51.460;7.090;2022-09-30T01:21:27;97213.84;;;2.48;77.29
12360;BME280;6244;51.460;7.090;2022-09-30T01:31:56;97216.25;;;2.51;77.92
12360;BME280;6244;51.460;7.090;2022-09-30T01:37:06;97227.66;;;2.47;77.94
12360;BME280;6244;51.460;7.090;2022-09-30T01:42:12;97219.66;;;2.36;78.15
12360;BME280;6244;51.460;7.090;2022-09-30T01:47:16;97213.09;;;2.46;77.98
12360;BME280;6244;51.460;7.090;2022-09-30T01:52:21;97214.16;;;2.42;78.47
12360;BME280;6244;51.460;7.090;2022-09-30T01:57:22;97214.66;;;2.49;78.34
12360;BME280;6244;51.460;7.090;2022-09-30T02:02:25;97222.69;;;2.60;78.23
12360;BME280;6244;51.460;7.090;2022-09-30T02:07:25;97229.75;;;2.56;78.26
12360;BME280;6244;51.460;7.090;2022-09-30T02:12:27;97216.94;;;2.22;77.98
12360;BME280;6244;51.460;7.090;2022-09-30T02:17:29;97206.00;;;2.17;78.31
12360;BME280;6244;51.460;7.090;2022-09-30T02:22:30;97202.59;;;2.17;78.52
12360;BME280;6244;51.460;7.090;2022-09-30T02:27:37;97210.81;;;2.40;78.55
12360;BME280;6244;51.460;7.090;2022-09-30T02:32:39;97204.88;;;2.38;78.33
12360;BME280;6244;51.460;7.090;2022-09-30T02:37:41;97216.88;;;2.24;77.92
12360;BME280;6244;51.460;7.090;2022-09-30T02:42:39;97220.75;;;2.15;78.20
12360;BME280;6244;51.460;7.090;2022-09-30T02:47:48;97218.28;;;2.29;78.21
12360;BME280;6244;51.460;7.090;2022-09-30T02:52:59;97225.38;;;2.26;77.70
12360;BME280;6244;51.460;7.090;2022-09-30T02:58:08;97225.75;;;2.18;77.78
12360;BME280;6244;51.460;7.090;2022-09-30T03:03:14;97229.66;;;2.10;77.52
12360;BME280;6244;51.460;7.090;2022-09-30T03:08:12;97227.13;;;2.25;78.26
12360;BME280;6244;51.460;7.090;2022-09-30T03:13:20;97231.19;;;2.29;78.42
12360;BME280;6244;51.460;7.090;2022-09-30T03:18:36;97228.47;;;2.32;78.40
12360;BME280;6244;51.460;7.090;2022-09-30T03:23:49;97233.94;;;2.26;78.13
12360;BME280;6244;51.460;7.090;2022-09-30T03:28:56;97233.22;;;2.40;78.80
12360;BME280;6244;51.460;7.090;2022-09-30T03:34:04;97242.47;;;2.28;78.67
12360;BME280;6244;51.460;7.090;2022-09-30T03:39:14;97241.53;;;2.29;79.11
12360;BME280;6244;51.460;7.090;2022-09-30T03:44:15;97242.63;;;2.25;79.08
12360;BME280;6244;51.460;7.090;2022-09-30T03:49:19;97250.06;;;2.31;79.33
12360;BME280;6244;51.460;7.090;2022-09-30T03:54:17;97251.28;;;2.24;79.11
12360;BME280;6244;51.460;7.090;2022-09-30T03:59:18;97260.22;;;2.34;79.59
12360;BME280;6244;51.460;7.090;2022-09-30T04:04:19;97255.31;;;2.13;79.53
12360;BME280;6244;51.460;7.090;2022-09-30T04:09:15;97250.69;;;2.19;79.65
12360;BME280;6244;51.460;7.090;2022-09-30T04:14:12;97266.66;;;2.10;79.57
12360;BME280;6244;51.460;7.090;2022-09-30T04:19:08;97263.38;;;1.89;79.41
12360;BME280;6244;51.460;7.090;2022-09-30T04:24:07;97281.63;;;1.69;79.13
12360;BME280;6244;51.460;7.090;2022-09-30T04:29:03;97277.81;;;1.76;79.13
12360;BME280;6244;51.460;7.090;2022-09-30T04:34:01;97288.00;;;1.97;79.46
12360;BME280;6244;51.460;7.090;2022-09-30T04:38:57;97288.72;;;1.99;79.63
12360;BME280;6244;51.460;7.090;2022-09-30T04:43:55;97284.72;;;1.93;79.64
12360;BME280;6244;51.460;7.090;2022-09-30T04:48:52;97297.00;;;2.22;79.97
12360;BME280;6244;51.460;7.090;2022-09-30T04:53:48;97292.16;;;2.33;80.06
12360;BME280;6244;51.460;7.090;2022-09-30T04:58:45;97300.31;;;2.41;80.54
12360;BME280;6244;51.460;7.090;2022-09-30T05:03:43;97301.09;;;2.43;80.43
12360;BME280;6244;51.460;7.090;2022-09-30T05:08:39;97306.09;;;2.46;80.52
12360;BME280;6244;51.460;7.090;2022-09-30T05:13:38;97301.41;;;2.37;80.47
12360;BME280;6244;51.460;7.090;2022-09-30T05:18:36;97312.44;;;2.41;80.31
12360;BME280;6244;51.460;7.090;2022-09-30T05:23:34;97307.88;;;1.95;80.05
12360;BME280;6244;51.460;7.090;2022-09-30T05:28:31;97294.66;;;2.18;80.15
12360;BME280;6244;51.460;7.090;2022-09-30T05:33:28;97308.38;;;2.35;80.72
12360;BME280;6244;51.460;7.090;2022-09-30T05:38:25;97313.47;;;2.37;80.74
12360;BME280;6244;51.460;7.090;2022-09-30T05:43:23;97325.19;;;2.10;80.32
12360;BME280;6244;51.460;7.090;2022-09-30T05:48:20;97328.13;;;1.68;79.88
12360;BME280;6244;51.460;7.090;2022-09-30T05:53:17;97343.84;;;1.63;79.54
12360;BME280;6244;51.460;7.090;2022-09-30T05:58:14;97346.13;;;1.69;79.46
12360;BME280;6244;51.460;7.090;2022-09-30T06:03:13;97352.50;;;1.79;79.05
12360;BME280;6244;51.460;7.090;2022-09-30T06:08:11;97353.34;;;1.97;78.94
12360;BME280;6244;51.460;7.090;2022-09-30T06:13:07;97360.88;;;2.19;78.87
12360;BME280;6244;51.460;7.090;2022-09-30T06:18:04;97362.50;;;2.21;78.09
12360;BME280;6244;51.460;7.090;2022-09-30T06:23:03;97372.00;;;2.21;77.84
12360;BME280;6244;51.460;7.090;2022-09-30T06:28:00;97370.63;;;2.31;78.23
12360;BME280;6244;51.460;7.090;2022-09-30T06:32:56;97383.91;;;2.40;78.14
12360;BME280;6244;51.460;7.090;2022-09-30T06:37:53;97378.66;;;2.59;77.97
12360;BME280;6244;51.460;7.090;2022-09-30T06:42:57;97401.00;;;2.60;77.32
12360;BME280;6244;51.460;7.090;2022-09-30T06:47:55;97412.00;;;2.80;77.63
12360;BME280;6244;51.460;7.090;2022-09-30T06:52:56;97408.19;;;3.04;77.65
12360;BME280;6244;51.460;7.090;2022-09-30T06:57:55;97419.25;;;3.39;77.34
12360;BME280;6244;51.460;7.090;2022-09-30T07:02:54;97427.88;;;3.70;77.19
12360;BME280;6244;51.460;7.090;2022-09-30T07:07:51;97435.06;;;3.97;76.62
12360;BME280;6244;51.460;7.090;2022-09-30T07:12:48;97452.75;;;4.20;76.77
12360;BME280;6244;51.460;7.090;2022-09-30T07:17:50;97445.00;;;4.49;76.80
12360;BME280;6244;51.460;7.090;2022-09-30T07:22:47;97454.09;;;4.86;76.35
12360;BME280;6244;51.460;7.090;2022-09-30T07:27:43;97456.38;;;5.20;75.59
12360;BME280;6244;51.460;7.090;2022-09-30T07:32:41;97457.94;;;5.50;74.47
12360;BME280;6244;51.460;7.090;2022-09-30T07:37:38;97471.88;;;6.71;71.99
12360;BME280;6244;51.460;7.090;2022-09-30T07:42:36;97481.59;;;6.82;70.37
12360;BME280;6244;51.460;7.090;2022-09-30T07:47:37;97489.69;;;6.65;70.59
12360;BME280;6244;51.460;7.090;2022-09-30T07:52:33;97487.53;;;6.57;71.06
12360;BME280;6244;51.460;7.090;2022-09-30T07:57:31;97493.81;;;7.06;71.20
12360;BME280;6244;51.460;7.090;2022-09-30T08:02:28;97497.19;;;7.71;69.22
12360;BME280;6244;51.460;7.090;2022-09-30T08:07:24;97510.72;;;9.43;68.39
12360;BME280;6244;51.460;7.090;2022-09-30T08:12:21;97558.50;;;13.02;84.35
12360;BME280;6244;51.460;7.090;2022-09-30T08:17:19;97559.59;;;13.75;85.42
12360;BME280;6244;51.460;7.090;2022-09-30T08:22:15;97579.56;;;15.15;81.04
12360;BME280;6244;51.460;7.090;2022-09-30T08:27:12;97585.59;;;16.72;70.59
12360;BME280;6244;51.460;7.090;2022-09-30T08:32:08;97591.94;;;16.27;69.89
12360;BME280;6244;51.460;7.090;2022-09-30T08:37:06;97592.56;;;15.26;72.70
12360;BME280;6244;51.460;7.090;2022-09-30T08:42:17;97588.91;;;15.54;72.73
12360;BME280;6244;51.460;7.090;2022-09-30T08:47:38;97588.22;;;14.26;74.79
12360;BME280;6244;51.460;7.090;2022-09-30T08:52:42;97596.44;;;15.84;71.48
12360;BME280;6244;51.460;7.090;2022-09-30T08:57:42;97597.97;;;17.05;65.95
12360;BME280;6244;51.460;7.090;2022-09-30T09:02:43;97618.69;;;17.99;58.96
12360;BME280;6244;51.460;7.090;2022-09-30T09:07:48;97604.59;;;16.67;64.92
12360;BME280;6244;51.460;7.090;2022-09-30T09:12:54;97605.25;;;15.92;68.47
12360;BME280;6244;51.460;7.090;2022-09-30T09:23:18;97614.91;;;16.53;64.89
12360;BME280;6244;51.460;7.090;2022-09-30T09:28:24;97615.81;;;17.60;58.46
12360;BME280;6244;51.460;7.090;2022-09-30T09:33:27;97629.59;;;18.12;56.67
12360;BME280;6244;51.460;7.090;2022-09-30T09:38:30;97628.31;;;19.33;53.05
12360;BME280;6244;51.460;7.090;2022-09-30T09:43:44;97605.34;;;16.52;61.25
12360;BME280;6244;51.460;7.090;2022-09-30T09:48:45;97614.06;;;16.78;61.20
12360;BME280;6244;51.460;7.090;2022-09-30T09:53:48;97633.41;;;18.10;56.89
12360;BME280;6244;51.460;7.090;2022-09-30T09:59:11;97636.81;;;19.82;48.31
12360;BME280;6244;51.460;7.090;2022-09-30T10:04:10;97615.50;;;18.20;53.94
12360;BME280;6244;51.460;7.090;2022-09-30T10:09:24;97624.78;;;18.24;54.49
12360;BME280;6244;51.460;7.090;2022-09-30T10:14:21;97638.34;;;18.53;51.35
12360;BME280;6244;51.460;7.090;2022-09-30T10:19:20;97617.50;;;17.69;55.28
12360;BME280;6244;51.460;7.090;2022-09-30T10:24:26;97605.88;;;16.55;61.97
12360;BME280;6244;51.460;7.090;2022-09-30T10:29:25;97613.94;;;16.54;61.40
12360;BME280;6244;51.460;7.090;2022-09-30T10:34:24;97607.22;;;17.50;58.71
12360;BME280;6244;51.460;7.090;2022-09-30T10:39:26;97606.34;;;16.92;58.98
12360;BME280;6244;51.460;7.090;2022-09-30T10:44:24;97640.50;;;19.12;51.44
12360;BME280;6244;51.460;7.090;2022-09-30T10:49:24;97622.97;;;18.40;50.84
12360;BME280;6244;51.460;7.090;2022-09-30T10:54:46;97606.22;;;17.59;57.88
12360;BME280;6244;51.460;7.090;2022-09-30T10:59:44;97624.16;;;18.92;50.24
12360;BME280;6244;51.460;7.090;2022-09-30T11:04:45;97628.06;;;18.66;51.30
12360;BME280;6244;51.460;7.090;2022-09-30T11:09:49;97636.81;;;19.21;46.73
12360;BME280;6244;51.460;7.090;2022-09-30T11:14:57;97627.72;;;16.99;55.77
12360;BME280;6244;51.460;7.090;2022-09-30T11:20:05;97636.41;;;17.82;50.56
12360;BME280;6244;51.460;7.090;2022-09-30T11:25:12;97634.66;;;16.66;55.82
12360;BME280;6244;51.460;7.090;2022-09-30T11:30:11;97633.69;;;17.58;57.90
12360;BME280;6244;51.460;7.090;2022-09-30T11:35:27;97632.22;;;17.56;52.70
12360;BME280;6244;51.460;7.090;2022-09-30T11:40:37;97634.41;;;17.76;55.64
12360;BME280;6244;51.460;7.090;2022-09-30T11:45:49;97634.25;;;17.28;52.45
12360;BME280;6244;51.460;7.090;2022-09-30T11:50:58;97627.81;;;17.23;54.02
12360;BME280;6244;51.460;7.090;2022-09-30T11:56:07;97631.69;;;17.52;50.76
12360;BME280;6244;51.460;7.090;2022-09-30T12:01:15;97619.72;;;16.57;54.51
12360;BME280;6244;51.460;7.090;2022-09-30T12:06:22;97600.44;;;16.65;54.01
12360;BME280;6244;51.460;7.090;2022-09-30T12:11:29;97614.69;;;17.05;55.12
12360;BME280;6244;51.460;7.090;2022-09-30T12:16:30;97596.19;;;16.80;56.09
12360;BME280;6244;51.460;7.090;2022-09-30T12:21:31;97575.72;;;15.54;61.87
12360;BME280;6244;51.460;7.090;2022-09-30T12:26:32;97593.81;;;16.35;56.75
12360;BME280;6244;51.460;7.090;2022-09-30T12:37:13;97556.50;;;15.34;65.75
12360;BME280;6244;51.460;7.090;2022-09-30T12:42:33;97558.56;;;15.23;62.82
12360;BME280;6244;51.460;7.090;2022-09-30T12:47:37;97563.78;;;14.88;63.58
12360;BME280;6244;51.460;7.090;2022-09-30T12:52:40;97544.75;;;14.39;65.44
12360;BME280;6244;51.460;7.090;2022-09-30T12:57:39;97545.13;;;14.08;66.81
12360;BME280;6244;51.460;7.090;2022-09-30T13:02:38;97534.56;;;14.17;68.02
12360;BME280;6244;51.460;7.090;2022-09-30T13:07:36;97538.78;;;14.37;67.07
12360;BME280;6244;51.460;7.090;2022-09-30T13:12:41;97541.72;;;14.62;67.32
12360;BME280;6244;51.460;7.090;2022-09-30T13:17:38;97523.84;;;14.28;65.67
12360;BME280;6244;51.460;7.090;2022-09-30T13:22:44;97526.28;;;14.49;66.31
12360;BME280;6244;51.460;7.090;2022-09-30T13:27:43;97520.59;;;14.07;67.82
12360;BME280;6244;51.460;7.090;2022-09-30T13:32:41;97512.63;;;13.90;69.49
12360;BME280;6244;51.460;7.090;2022-09-30T13:37:40;97514.03;;;13.75;69.60
12360;BME280;6244;51.460;7.090;2022-09-30T13:42:44;97507.75;;;13.30;70.09
12360;BME280;6244;51.460;7.090;2022-09-30T13:47:46;97509.59;;;13.75;69.81
12360;BME280;6244;51.460;7.090;2022-09-30T13:52:46;97503.44;;;13.94;68.46
12360;BME280;6244;51.460;7.090;2022-09-30T13:57:56;97521.03;;;14.67;66.91
12360;BME280;6244;51.460;7.090;2022-09-30T14:03:08;97496.72;;;13.72;67.63
12360;BME280;6244;51.460;7.090;2022-09-30T14:08:32;97491.34;;;13.64;69.05
12360;BME280;6244;51.460;7.090;2022-09-30T14:13:43;97495.84;;;13.81;69.73
12360;BME280;6244;51.460;7.090;2022-09-30T14:19:07;97487.25;;;14.25;68.51
12360;BME280;6244;51.460;7.090;2022-09-30T14:24:11;97476.00;;;13.96;68.81
12360;BME280;6244;51.460;7.090;2022-09-30T14:29:16;97473.38;;;13.41;69.74
12360;BME280;6244;51.460;7.090;2022-09-30T14:34:17;97469.28;;;13.10;70.43
12360;BME280;6244;51.460;7.090;2022-09-30T14:39:18;97470.97;;;13.66;70.65
12360;BME280;6244;51.460;7.090;2022-09-30T14:44:18;97464.78;;;13.94;69.88
12360;BME280;6244;51.460;7.090;2022-09-30T14:49:19;97466.13;;;14.08;69.40
12360;BME280;6244;51.460;7.090;2022-09-30T14:54:25;97457.66;;;14.04;68.69
12360;BME280;6244;51.460;7.090;2022-09-30T14:59:26;97454.41;;;13.93;69.30
12360;BME280;6244;51.460;7.090;2022-09-30T15:04:25;97460.09;;;13.88;68.61
12360;BME280;6244;51.460;7.090;2022-09-30T15:09:27;97458.94;;;13.54;69.52
12360;BME280;6244;51.460;7.090;2022-09-30T15:14:26;97444.47;;;12.93;70.44
12360;BME280;6244;51.460;7.090;2022-09-30T15:19:25;97441.81;;;12.45;70.47
12360;BME280;6244;51.460;7.090;2022-09-30T15:24:23;97435.41;;;12.29;70.44
12360;BME280;6244;51.460;7.090;2022-09-30T15:29:21;97420.50;;;12.29;70.65
12360;BME280;6244;51.460;7.090;2022-09-30T15:34:21;97427.19;;;12.03;69.99
12360;BME280;6244;51.460;7.090;2022-09-30T15:39:21;97424.94;;;11.89;69.37
12360;BME280;6244;51.460;7.090;2022-09-30T15:44:35;97427.69;;;11.88;69.77
12360;BME280;6244;51.460;7.090;2022-09-30T15:49:45;97426.09;;;12.06;68.95
12360;BME280;6244;51.460;7.090;2022-09-30T15:54:43;97429.22;;;12.39;70.56
12360;BME280;6244;51.460;7.090;2022-09-30T15:59:58;97423.97;;;12.49;71.36
12360;BME280;6244;51.460;7.090;2022-09-30T16:04:58;97424.28;;;12.55;71.70
12360;BME280;6244;51.460;7.090;2022-09-30T16:09:57;97430.75;;;12.51;71.14
12360;BME280;6244;51.460;7.090;2022-09-30T16:14:57;97427.00;;;12.35;71.36
12360;BME280;6244;51.460;7.090;2022-09-30T16:19:56;97432.63;;;12.21;70.44
12360;BME280;6244;51.460;7.090;2022-09-30T16:25:00;97431.47;;;12.04;67.60
12360;BME280;6244;51.460;7.090;2022-09-30T16:29:59;97437.66;;;11.84;67.44
12360;BME280;6244;51.460;7.090;2022-09-30T16:34:56;97438.38;;;11.66;65.45
12360;BME280;6244;51.460;7.090;2022-09-30T16:39:54;97437.72;;;11.53;64.79
12360;BME280;6244;51.460;7.090;2022-09-30T16:44:53;97432.63;;;11.31;63.32
12360;BME280;6244;51.460;7.090;2022-09-30T16:49:50;97434.50;;;11.19;64.64
12360;BME280;6244;51.460;7.090;2022-09-30T16:54:46;97428.78;;;10.93;62.36
12360;BME280;6244;51.460;7.090;2022-09-30T16:59:43;97427.88;;;10.63;59.52
12360;BME280;6244;51.460;7.090;2022-09-30T17:04:41;97416.59;;;10.51;60.12
12360;BME280;6244;51.460;7.090;2022-09-30T17:09:41;97414.41;;;10.36;59.42
12360;BME280;6244;51.460;7.090;2022-09-30T17:14:38;97416.72;;;10.18;58.60
12360;BME280;6244;51.460;7.090;2022-09-30T17:19:37;97403.28;;;10.01;57.02
12360;BME280;6244;51.460;7.090;2022-09-30T17:24:34;97413.03;;;9.88;57.83
12360;BME280;6244;51.460;7.090;2022-09-30T17:29:31;97427.31;;;9.84;58.27
12360;BME280;6244;51.460;7.090;2022-09-30T17:34:27;97422.94;;;9.73;58.94
12360;BME280;6244;51.460;7.090;2022-09-30T17:39:24;97417.81;;;9.72;59.43
12360;BME280;6244;51.460;7.090;2022-09-30T17:44:23;97409.63;;;9.76;59.68
12360;BME280;6244;51.460;7.090;2022-09-30T17:49:19;97403.78;;;9.84;59.66
12360;BME280;6244;51.460;7.090;2022-09-30T17:54:16;97406.03;;;9.88;60.29
12360;BME280;6244;51.460;7.090;2022-09-30T17:59:12;97407.94;;;9.86;59.76
12360;BME280;6244;51.460;7.090;2022-09-30T18:04:10;97404.69;;;9.94;60.32
12360;BME280;6244;51.460;7.090;2022-09-30T18:09:07;97389.25;;;9.91;60.60
12360;BME280;6244;51.460;7.090;2022-09-30T18:14:03;97395.47;;;9.79;59.87
12360;BME280;6244;51.460;7.090;2022-09-30T18:19:02;97394.28;;;9.83;60.54
12360;BME280;6244;51.460;7.090;2022-09-30T18:24:00;97383.47;;;9.76;60.05
12360;BME280;6244;51.460;7.090;2022-09-30T18:28:57;97391.66;;;9.72;59.65
12360;BME280;6244;51.460;7.090;2022-09-30T18:33:54;97394.75;;;9.77;59.85
12360;BME280;6244;51.460;7.090;2022-09-30T18:38:50;97398.56;;;9.84;59.97
12360;BME280;6244;51.460;7.090;2022-09-30T18:43:50;97400.69;;;9.90;59.70
12360;BME280;6244;51.460;7.090;2022-09-30T18:48:51;97401.88;;;9.86;59.54
12360;BME280;6244;51.460;7.090;2022-09-30T18:53:51;97399.50;;;9.72;59.74
12360;BME280;6244;51.460;7.090;2022-09-30T18:58:53;97399.06;;;9.56;59.57
12360;BME280;6244;51.460;7.090;2022-09-30T19:03:50;97405.94;;;9.46;59.92
12360;BME280;6244;51.460;7.090;2022-09-30T19:08:47;97398.69;;;9.38;60.23
12360;BME280;6244;51.460;7.090;2022-09-30T19:13:45;97388.34;;;9.48;60.48
12360;BME280;6244;51.460;7.090;2022-09-30T19:18:44;97385.75;;;9.48;60.70
12360;BME280;6244;51.460;7.090;2022-09-30T19:23:41;97384.91;;;9.36;60.73
12360;BME280;6244;51.460;7.090;2022-09-30T19:28:38;97377.66;;;9.29;61.01
12360;BME280;6244;51.460;7.090;2022-09-30T19:33:34;97375.28;;;9.26;61.44
12360;BME280;6244;51.460;7.090;2022-09-30T19:38:35;97361.16;;;9.17;61.67
12360;BME280;6244;51.460;7.090;2022-09-30T19:43:33;97364.69;;;9.05;61.57
12360;BME280;6244;51.460;7.090;2022-09-30T19:48:31;97359.88;;;8.77;62.80
12360;BME280;6244;51.460;7.090;2022-09-30T19:53:29;97354.03;;;8.62;63.32
12360;BME280;6244;51.460;7.090;2022-09-30T19:58:30;97345.25;;;8.63;63.48
12360;BME280;6244;51.460;7.090;2022-09-30T20:03:27;97346.34;;;8.61;63.58
12360;BME280;6244;51.460;7.090;2022-09-30T20:08:25;97350.47;;;8.63;63.56
12360;BME280;6244;51.460;7.090;2022-09-30T20:13:22;97344.06;;;8.56;63.87
12360;BME280;6244;51.460;7.090;2022-09-30T20:18:20;97351.16;;;8.54;63.80
12360;BME280;6244;51.460;7.090;2022-09-30T20:23:16;97349.75;;;8.50;63.81
12360;BME280;6244;51.460;7.090;2022-09-30T20:28:13;97347.25;;;8.49;63.72
12360;BME280;6244;51.460;7.090;2022-09-30T20:33:11;97341.56;;;8.55;64.05
12360;BME280;6244;51.460;7.090;2022-09-30T20:38:12;97342.28;;;8.57;63.98
12360;BME280;6244;51.460;7.090;2022-09-30T20:43:09;97328.56;;;8.66;64.49
12360;BME280;6244;51.460;7.090;2022-09-30T20:48:05;97320.59;;;8.67;64.79
12360;BME280;6244;51.460;7.090;2022-09-30T20:53:04;97312.88;;;8.66;64.81
12360;BME280;6244;51.460;7.090;2022-09-30T20:58:03;97303.38;;;8.65;65.08
12360;BME280;6244;51.460;7.090;2022-09-30T21:03:00;97306.59;;;8.68;65.27
12360;BME280;6244;51.460;7.090;2022-09-30T21:07:56;97304.59;;;8.72;65.47
12360;BME280;6244;51.460;7.090;2022-09-30T21:12:53;97299.38;;;8.72;65.62
12360;BME280;6244;51.460;7.090;2022-09-30T21:17:53;97292.72;;;8.79;65.52
12360;BME280;6244;51.460;7.090;2022-09-30T21:22:50;97288.94;;;8.83;66.47
12360;BME280;6244;51.460;7.090;2022-09-30T21:27:48;97279.06;;;8.75;66.12
12360;BME280;6244;51.460;7.090;2022-09-30T21:32:45;97278.50;;;8.83;66.47
12360;BME280;6244;51.460;7.090;2022-09-30T21:37:47;97263.41;;;8.86;66.73
12360;BME280;6244;51.460;7.090;2022-09-30T21:42:44;97258.06;;;8.88;66.52
12360;BME280;6244;51.460;7.090;2022-09-30T21:47:40;97262.13;;;8.92;66.85
12360;BME280;6244;51.460;7.090;2022-09-30T21:52:37;97254.75;;;8.97;66.44
12360;BME280;6244;51.460;7.090;2022-09-30T21:57:35;97246.34;;;8.93;66.54
12360;BME280;6244;51.460;7.090;2022-09-30T22:02:31;97240.16;;;8.94;66.55
12360;BME280;6244;51.460;7.090;2022-09-30T22:07:28;97246.69;;;9.00;66.88
12360;BME280;6244;51.460;7.090;2022-09-30T22:12:24;97236.59;;;8.95;66.61
12360;BME280;6244;51.460;7.090;2022-09-30T22:17:22;97241.81;;;8.95;66.82
12360;BME280;6244;51.460;7.090;2022-09-30T22:22:18;97239.56;;;8.91;66.56
12360;BME280;6244;51.460;7.090;2022-09-30T22:27:15;97222.00;;;8.93;66.48
12360;BME280;6244;51.460;7.090;2022-09-30T22:32:11;97223.53;;;8.95;66.46
12360;BME280;6244;51.460;7.090;2022-09-30T22:37:09;97228.88;;;8.94;66.34
12360;BME280;6244;51.460;7.090;2022-09-30T22:42:23;97218.44;;;8.94;66.52
12360;BME280;6244;51.460;7.090;2022-09-30T22:47:19;97203.25;;;8.88;64.97
12360;BME280;6244;51.460;7.090;2022-09-30T22:52:17;97203.34;;;8.86;68.31
12360;BME280;6244;51.460;7.090;2022-09-30T22:57:14;97194.94;;;8.94;70.45
12360;BME280;6244;51.460;7.090;2022-09-30T23:02:12;97183.66;;;8.93;75.44
12360;BME280;6244;51.460;7.090;2022-09-30T23:07:09;97188.28;;;8.90;76.51
12360;BME280;6244;51.460;7.090;2022-09-30T23:12:06;97161.59;;;8.86;78.03
12360;BME280;6244;51.460;7.090;2022-09-30T23:17:03;97163.03;;;8.79;80.14
12360;BME280;6244;51.460;7.090;2022-09-30T23:22:00;97172.03;;;8.86;81.53
12360;BME280;6244;51.460;7.090;2022-09-30T23:26:56;97145.00;;;8.87;82.79
12360;BME280;6244;51.460;7.090;2022-09-30T23:32:16;97127.53;;;8.88;83.61
12360;BME280;6244;51.460;7.090;2022-09-30T23:37:18;97126.59;;;8.89;83.49
12360;BME280;6244;51.460;7.090;2022-09-30T23:42:14;97124.78;;;8.89;83.75
12360;BME280;6244;51.460;7.090;2022-09-30T23:47:12;97119.69;;;8.88;83.74
12360;BME280;6244;51.460;7.090;2022-09-30T23:52:17;97107.84;;;8.84;83.65
12360;BME280;6244;51.460;7.090;2022-09-30T23:57:13;97090.84;;;8.89;83.56
